Time;durP1;ratioP1;P1;durP2;ratioP2;P2;SDS_P1;SDS_P2;PMS_P1;PMS_P2;Temp;Humidity;BMP_temperature;BMP_pressure;BME280_temperature;BME280_humidity;BME280_pressure;Samples;Min_cycle;Max_cycle;Signal;HPM_P1;HPM_P2
2021/08/20 00:00:00;;;;;;;2.60;2.40;;;18.50;99.90;;;;;;5016875;28;20468;-84
2021/08/20 00:02:28;;;;;;;2.40;2.20;;;18.50;99.90;;;;;;4999881;28;20562;-85
2021/08/20 00:04:58;;;;;;;2.80;2.60;;;18.50;99.90;;;;;;5019027;28;20531;-84
2021/08/20 00:07:25;;;;;;;2.70;2.23;;;18.40;99.90;;;;;;5005494;28;20460;-87
2021/08/20 00:09:54;;;;;;;3.03;2.83;;;18.40;99.90;;;;;;5005767;28;20446;-84
2021/08/20 00:12:22;;;;;;;3.40;2.37;;;18.40;99.90;;;;;;5005038;28;20454;-83
2021/08/20 00:14:49;;;;;;;3.73;2.50;;;18.40;99.90;;;;;;5023938;28;20506;-85
2021/08/20 00:17:16;;;;;;;2.77;2.57;;;18.40;99.90;;;;;;5005239;28;20496;-84
2021/08/20 00:19:43;;;;;;;2.70;2.50;;;18.40;99.90;;;;;;5005936;28;20453;-82
2021/08/20 00:22:09;;;;;;;3.03;2.50;;;18.30;99.90;;;;;;5005102;28;20515;-84
2021/08/20 00:24:37;;;;;;;2.63;2.23;;;18.30;99.90;;;;;;5004609;28;20504;-84
2021/08/20 00:27:04;;;;;;;2.57;2.37;;;18.30;99.90;;;;;;4998539;28;20517;-84
2021/08/20 00:29:31;;;;;;;3.70;2.40;;;18.30;99.90;;;;;;5001915;28;20458;-84
2021/08/20 00:32:07;;;;;;;2.63;2.43;;;18.40;99.90;;;;;;5002526;28;20450;-84
2021/08/20 00:34:37;;;;;;;3.00;2.70;;;18.40;99.90;;;;;;5000927;28;20544;-84
2021/08/20 00:37:20;;;;;;;2.57;2.37;;;18.30;99.90;;;;;;5000780;28;20549;-86
2021/08/20 00:40:19;;;;;;;2.67;2.47;;;18.30;99.90;;;;;;5005126;28;20464;-86
2021/08/20 00:43:25;;;;;;;2.83;2.63;;;18.30;99.90;;;;;;5001486;28;20485;-84
2021/08/20 00:49:20;;;;;;;3.50;3.20;;;18.30;99.90;;;;;;5012453;28;20450;-84
2021/08/20 00:52:32;;;;;;;5.60;3.13;;;18.30;99.90;;;;;;4983789;28;20449;-85
2021/08/20 00:55:31;;;;;;;3.13;2.93;;;18.30;99.90;;;;;;5020670;22;20645;-83
2021/08/20 00:58:36;;;;;;;3.53;3.20;;;18.30;99.90;;;;;;5015387;28;20446;-84
2021/08/20 01:01:34;;;;;;;2.67;2.47;;;18.30;99.90;;;;;;5037512;28;20445;-84
2021/08/20 01:04:38;;;;;;;3.50;2.90;;;18.30;99.90;;;;;;5014817;28;20576;-85
2021/08/20 01:07:36;;;;;;;3.50;3.20;;;18.30;99.90;;;;;;5027381;28;20540;-85
2021/08/20 01:10:38;;;;;;;6.27;3.53;;;18.30;99.90;;;;;;5013285;28;20533;-84
2021/08/20 01:14:01;;;;;;;3.40;3.17;;;18.30;99.90;;;;;;5015587;28;20501;-85
2021/08/20 01:17:15;;;;;;;3.60;3.30;;;18.30;99.90;;;;;;5001630;28;20453;-86
2021/08/20 01:20:07;;;;;;;5.37;3.23;;;18.20;99.90;;;;;;5040790;28;20450;-84
2021/08/20 01:23:08;;;;;;;5.40;2.80;;;18.20;99.90;;;;;;5020203;28;20501;-85
2021/08/20 01:26:07;;;;;;;5.20;3.50;;;18.20;99.90;;;;;;5021833;28;20465;-86
2021/08/20 01:28:39;;;;;;;3.93;3.43;;;18.20;99.90;;;;;;5016150;28;20433;-84
2021/08/20 01:31:48;;;;;;;;;;;;;;;;;;;;;
2021/08/20 01:34:55;;;;;;;3.80;3.00;;;18.20;99.90;;;;;;5031086;28;20478;-86
2021/08/20 01:37:46;;;;;;;5.90;3.10;;;18.20;99.90;;;;;;5001247;28;20442;-84
2021/08/20 01:40:42;;;;;;;3.90;3.20;;;18.20;99.90;;;;;;5016084;28;20499;-84
2021/08/20 01:43:23;;;;;;;4.43;3.70;;;18.20;99.90;;;;;;5023310;28;20548;-85
2021/08/20 01:46:23;;;;;;;4.63;3.40;;;18.20;99.90;;;;;;5029185;28;20458;-86
2021/08/20 01:49:10;;;;;;;3.63;3.07;;;18.10;99.90;;;;;;5043069;28;20453;-85
2021/08/20 01:52:21;;;;;;;;;;;;;;;;;;;;;
2021/08/20 01:55:31;;;;;;;3.17;2.87;;;18.10;99.90;;;;;;5007427;28;20479;-85
2021/08/20 01:58:29;;;;;;;4.07;3.67;;;18.10;99.90;;;;;;4985298;28;20486;-85
2021/08/20 02:05:35;;;;;;;;;;;;;;;;;;;;;
2021/08/20 02:08:25;;;;;;;3.37;3.17;;;18.10;99.90;;;;;;4980115;28;20447;-84
2021/08/20 02:11:15;;;;;;;3.87;3.40;;;18.10;99.90;;;;;;4997691;28;20442;-87
2021/08/20 02:14:19;;;;;;;3.87;3.30;;;18.10;99.90;;;;;;5002902;28;21278;-84
2021/08/20 02:17:10;;;;;;;4.87;3.67;;;18.00;99.90;;;;;;4993134;28;20498;-83
2021/08/20 02:23:18;;;;;;;6.33;3.80;;;18.00;99.90;;;;;;4994704;28;20538;-83
2021/08/20 02:26:19;;;;;;;4.40;3.90;;;17.90;99.90;;;;;;5026102;28;20560;-85
2021/08/20 02:29:17;;;;;;;5.83;4.50;;;17.90;99.90;;;;;;5026490;28;20454;-85
2021/08/20 02:32:03;;;;;;;7.23;4.27;;;17.90;99.90;;;;;;5017135;28;20478;-84
2021/08/20 02:35:05;;;;;;;5.03;4.30;;;17.90;99.90;;;;;;5015391;28;20468;-85
2021/08/20 02:37:56;;;;;;;5.60;4.50;;;18.00;99.90;;;;;;5025249;28;20480;-86
2021/08/20 02:40:56;;;;;;;;;;;;;;;;;;;;;
2021/08/20 02:47:42;;;;;;;5.87;5.37;;;17.90;99.90;;;;;;5051931;28;20453;-83
2021/08/20 02:50:55;;;;;;;;;;;;;;;;;;;;;
2021/08/20 02:54:32;;;;;;;4.53;4.13;;;17.90;99.90;;;;;;5040086;28;20457;-84
2021/08/20 03:01:48;;;;;;;5.90;4.80;;;17.90;99.90;;;;;;4927098;29;20504;-84
2021/08/20 03:07:51;;;;;;;7.90;5.17;;;17.90;99.90;;;;;;5011690;28;20450;-85
2021/08/20 03:26:37;;;;;;;5.10;4.33;;;17.80;99.90;;;;;;4992445;28;20471;-84
2021/08/20 03:29:56;;;;;;;;;;;;;;;;;;;;;
2021/08/20 03:37:14;;;;;;;;;;;;;;;;;;;;;
2021/08/20 03:40:24;;;;;;;;;;;;;;;;;;;;;
2021/08/20 03:58:37;;;;;;;6.00;5.10;;;17.90;99.90;;;;;;4936334;28;20805;-85
2021/08/20 04:05:27;;;;;;;;;;;;;;;;;;;;;
2021/08/20 04:08:24;;;;;;;7.97;6.10;;;17.90;99.90;;;;;;4903053;29;20461;-83
2021/08/20 04:11:25;;;;;;;7.20;6.00;;;17.80;99.90;;;;;;4886173;29;20454;-85
2021/08/20 04:14:54;;;;;;;7.77;6.33;;;17.80;99.90;;;;;;5002904;22;20478;-83
2021/08/20 04:25:03;;;;;;;11.30;6.93;;;18.10;99.90;;;;;;5008059;28;20508;-84
2021/08/20 04:28:12;;;;;;;9.87;6.30;;;18.50;99.90;;;;;;4989427;28;20461;-85
2021/08/20 04:30:41;;;;;;;8.23;6.63;;;18.20;99.90;;;;;;4986642;28;20566;-84
2021/08/20 04:37:18;;;;;;;11.40;6.40;;;17.90;99.90;;;;;;5003337;28;20493;-84
2021/08/20 04:40:45;;;;;;;7.07;6.20;;;18.40;99.90;;;;;;4989397;28;20963;-84
2021/08/20 04:44:20;;;;;;;9.77;6.43;;;18.40;99.90;;;;;;4992284;28;20980;-82
2021/08/20 04:47:46;;;;;;;9.67;7.00;;;18.50;99.90;;;;;;4929802;29;20495;-84
2021/08/20 04:51:09;;;;;;;8.73;6.87;;;18.50;99.90;;;;;;4930987;29;20932;-85
2021/08/20 04:54:07;;;;;;;11.00;6.80;;;18.60;99.90;;;;;;4862775;29;20466;-87
2021/08/20 04:57:55;;;;;;;10.37;7.40;;;18.60;99.90;;;;;;4849541;29;20545;-85
2021/08/20 05:05:33;;;;;;;;;;;;;;;;;;;;;
2021/08/20 05:08:50;;;;;;;9.57;6.73;;;18.40;99.90;;;;;;4756535;30;20450;-85
2021/08/20 05:11:48;;;;;;;10.00;7.33;;;18.20;99.90;;;;;;4773333;29;20520;-84
2021/08/20 05:15:30;;;;;;;;;;;;;;;;;;;;;
2021/08/20 05:18:35;;;;;;;7.20;6.50;;;18.20;99.90;;;;;;4781409;30;20466;-85
2021/08/20 05:25:15;;;;;;;7.27;6.50;;;18.60;99.90;;;;;;4803736;29;20910;-84
2021/08/20 05:28:12;;;;;;;8.20;7.30;;;18.50;99.90;;;;;;4815579;29;20572;-84
2021/08/20 05:31:23;;;;;;;10.10;8.00;;;18.60;99.90;;;;;;4827807;29;20465;-84
2021/08/20 05:34:21;;;;;;;6.93;6.30;;;18.40;99.90;;;;;;4827771;29;20571;-84
2021/08/20 05:37:08;;;;;;;9.03;6.80;;;18.10;99.90;;;;;;4825874;29;20962;-85
2021/08/20 05:47:27;;;;;;;11.13;7.43;;;18.50;99.90;;;;;;4891723;29;20431;-84
2021/08/20 05:50:33;;;;;;;8.10;7.30;;;18.70;99.90;;;;;;4881534;29;20535;-85
2021/08/20 05:54:25;;;;;;;;;;;;;;;;;;;;;
2021/08/20 05:56:59;;;;;;;8.17;7.37;;;18.80;99.90;;;;;;5011336;28;20936;-83
2021/08/20 05:59:58;;;;;;;8.00;7.20;;;18.80;99.90;;;;;;4998625;28;20889;-85
2021/08/20 06:03:29;;;;;;;8.77;7.87;;;18.70;99.90;;;;;;4938109;29;20453;-84
2021/08/20 06:06:46;;;;;;;9.47;8.10;;;18.90;99.90;;;;;;4866972;29;20465;-85
2021/08/20 06:09:42;;;;;;;10.60;9.50;;;18.90;99.90;;;;;;4790165;29;20456;-84
2021/08/20 06:12:54;;;;;;;11.10;8.47;;;18.90;99.90;;;;;;4881394;29;20452;-84
2021/08/20 06:20:08;;;;;;;;;;;;;;;;;;;;;
2021/08/20 06:22:57;;;;;;;9.70;8.80;;;19.20;99.90;;;;;;4881841;29;20460;-84
2021/08/20 06:26:38;;;;;;;11.80;9.70;;;19.50;99.90;;;;;;4871819;29;20489;-84
2021/08/20 06:37:08;;;;;;;;;;;;;;;;;;;;;
2021/08/20 06:40:27;;;;;;;;;;;;;;;;;;;;;
2021/08/20 06:43:48;;;;;;;9.97;8.90;;;19.50;99.90;;;;;;5003862;28;20502;-85
2021/08/20 06:47:20;;;;;;;;;;;;;;;;;;;;;
2021/08/20 06:51:11;;;;;;;10.37;9.37;;;19.90;99.90;;;;;;4976671;28;20471;-85
2021/08/20 06:53:55;;;;;;;10.47;8.40;;;20.40;99.90;;;;;;4924413;28;20465;-86
2021/08/20 07:00:37;;;;;;;9.30;8.20;;;20.20;99.90;;;;;;4975108;28;20445;-85
2021/08/20 07:07:39;;;;;;;10.70;8.30;;;21.30;99.90;;;;;;4897939;29;20463;-83
2021/08/20 07:21:38;;;;;;;;;;;;;;;;;;;;;
2021/08/20 07:25:13;;;;;;;9.40;8.00;;;20.50;99.90;;;;;;4842884;29;20597;-83
2021/08/20 07:28:32;;;;;;;;;;;;;;;;;;;;;
2021/08/20 07:31:58;;;;;;;8.17;7.40;;;22.00;98.20;;;;;;4856697;29;20456;-86
2021/08/20 07:35:13;;;;;;;8.00;7.30;;;21.90;98.50;;;;;;4848994;29;20469;-85
2021/08/20 07:38:31;;;;;;;8.33;7.43;;;21.60;98.80;;;;;;4865382;29;21036;-85
2021/08/20 07:41:56;;;;;;;10.43;7.60;;;21.80;98.10;;;;;;4910749;29;20460;-86
2021/08/20 07:44:53;;;;;;;9.23;7.70;;;21.10;98.80;;;;;;4892357;29;21030;-85
2021/08/20 07:47:57;;;;;;;9.20;6.07;;;20.30;99.90;;;;;;4868326;29;20469;-85
2021/08/20 07:55:23;;;;;;;7.83;7.03;;;20.00;99.90;;;;;;4979139;22;20496;-84
2021/08/20 08:02:21;;;;;;;7.83;7.00;;;20.60;99.90;;;;;;4973009;28;20500;-85
2021/08/20 08:05:15;;;;;;;10.07;7.70;;;20.60;99.90;;;;;;4919279;29;20893;-85
2021/08/20 08:08:09;;;;;;;7.57;6.63;;;20.70;99.90;;;;;;4953391;29;20512;-85
2021/08/20 08:11:36;;;;;;;8.90;8.00;;;20.60;99.90;;;;;;4900570;29;20464;-85
2021/08/20 08:14:54;;;;;;;8.53;7.40;;;20.50;99.90;;;;;;4898051;29;21085;-85
2021/08/20 08:17:55;;;;;;;9.40;8.40;;;20.40;99.90;;;;;;4882575;29;20456;-85
2021/08/20 08:24:56;;;;;;;8.73;7.83;;;20.80;99.90;;;;;;4838000;29;20476;-87
2021/08/20 08:36:47;;;;;;;8.93;7.70;;;21.00;99.90;;;;;;4784887;29;20621;-84
2021/08/20 08:43:33;;;;;;;9.47;8.53;;;22.10;98.50;;;;;;4878758;29;20601;-84
2021/08/20 08:46:41;;;;;;;11.20;7.90;;;22.30;97.50;;;;;;4914489;29;20625;-82
2021/08/20 08:50:04;;;;;;;;;;;;;;;;;;;;;
2021/08/20 08:56:20;;;;;;;9.07;7.70;;;20.90;99.90;;;;;;4970897;28;20837;-86
2021/08/20 08:59:09;;;;;;;8.07;7.27;;;21.20;99.90;;;;;;4897026;29;20452;-83
2021/08/20 09:02:35;;;;;;;6.70;6.00;;;22.20;98.10;;;;;;4896681;29;20451;-83
2021/08/20 09:09:36;;;;;;;;;;;;;;;;;;;;;
2021/08/20 09:20:11;;;;;;;7.47;6.87;;;21.60;99.90;;;;;;4797949;29;21020;-83
2021/08/20 09:23:32;;;;;;;;;;;;;;;;;;;;;
2021/08/20 09:27:24;;;;;;;8.40;7.70;;;21.10;99.90;;;;;;4870994;29;20486;-84
2021/08/20 09:30:24;;;;;;;10.10;9.20;;;20.90;99.90;;;;;;4834188;29;20450;-85
2021/08/20 09:34:01;;;;;;;;;;;;;;;;;;;;;
2021/08/20 09:41:53;;;;;;;9.63;8.50;;;20.30;99.90;;;;;;4968783;28;20440;-82
2021/08/20 09:49:13;;;;;;;;;;;;;;;;;;;;;
2021/08/20 09:56:07;;;;;;;8.30;7.47;;;21.10;99.90;;;;;;4945461;29;20545;-84
2021/08/20 09:59:38;;;;;;;6.27;5.67;;;21.30;99.90;;;;;;4927224;29;20476;-83
2021/08/20 10:03:06;;;;;;;7.73;6.93;;;21.50;99.90;;;;;;4909974;29;20461;-84
2021/08/20 10:13:58;;;;;;;6.63;6.03;;;22.00;99.90;;;;;;4828935;29;20519;-83
2021/08/20 10:17:43;;;;;;;7.63;7.00;;;21.60;99.90;;;;;;4825754;29;20498;-82
2021/08/20 10:21:25;;;;;;;;;;;;;;;;;;;;;
2021/08/20 10:27:06;;;;;;;5.50;5.00;;;22.20;99.90;;;;;;5098719;22;20850;-83
2021/08/20 10:30:18;;;;;;;;;;;;;;;;;;;;;
2021/08/20 10:39:07;;;;;;;2.60;2.40;;;25.40;95.40;;;;;;5090729;22;20548;-84
2021/08/20 10:54:15;;;;;;;;;;;;;;;;;;;;;
2021/08/20 10:58:10;;;;;;;1.00;0.93;;;23.90;96.40;;;;;;4946005;29;20587;-87
2021/08/20 11:01:42;;;;;;;0.90;0.90;;;23.50;96.80;;;;;;4876155;29;20452;-86
2021/08/20 11:05:11;;;;;;;0.80;0.80;;;23.30;97.30;;;;;;4884886;29;20494;-83
2021/08/20 11:08:31;;;;;;;1.10;1.03;;;23.00;97.90;;;;;;4881512;29;20440;-86
2021/08/20 11:19:26;;;;;;;2.40;1.20;;;23.50;96.40;;;;;;4877170;29;20433;-84
2021/08/20 11:23:01;;;;;;;4.30;0.97;;;23.30;97.00;;;;;;4884401;29;20451;-87
2021/08/20 11:26:44;;;;;;;;;;;;;;;;;;;;;
2021/08/20 11:30:33;;;;;;;1.40;1.30;;;22.40;98.90;;;;;;4830518;29;20465;-86
2021/08/20 11:33:41;;;;;;;1.43;1.33;;;23.10;97.50;;;;;;4862863;29;20477;-82
2021/08/20 11:37:35;;;;;;;;;;;;;;;;;;;;;
2021/08/20 11:41:56;;;;;;;1.20;1.10;;;23.40;96.70;;;;;;4850861;29;20497;-86
2021/08/20 11:48:50;;;;;;;1.23;1.00;;;24.40;94.10;;;;;;4887278;29;20530;-86
2021/08/20 11:52:13;;;;;;;1.10;1.00;;;23.80;94.70;;;;;;4913988;28;20454;-84
2021/08/20 11:55:19;;;;;;;0.90;0.90;;;24.00;94.90;;;;;;4958274;28;20472;-86
2021/08/20 11:58:26;;;;;;;0.90;0.90;;;24.50;94.30;;;;;;4954053;29;20527;-86
2021/08/20 12:01:58;;;;;;;1.17;1.07;;;25.70;91.30;;;;;;4960204;28;20926;-87
2021/08/20 12:05:19;;;;;;;1.10;1.00;;;25.60;91.20;;;;;;4938016;28;20491;-85
2021/08/20 12:16:42;;;;;;;5.27;1.57;;;24.70;92.40;;;;;;5026210;22;20581;-86
2021/08/20 12:43:20;;;;;;;1.90;1.30;;;25.60;90.40;;;;;;4860973;29;20436;-83
2021/08/20 13:02:24;;;;;;;6.57;2.97;;;24.80;90.60;;;;;;5046756;22;20509;-86
2021/08/20 13:05:26;;;;;;;;;;;;;;;;;;;;;
2021/08/20 13:28:00;;;;;;;1.93;1.80;;;26.30;80.90;;;;;;5004655;28;20485;-84
2021/08/20 13:38:21;;;;;;;3.97;1.50;;;26.40;79.60;;;;;;5112688;23;20510;-85
2021/08/20 13:41:33;;;;;;;2.23;1.80;;;26.70;79.80;;;;;;4976691;28;20451;-86
2021/08/20 13:44:24;;;;;;;1.83;1.73;;;26.50;79.80;;;;;;4922001;29;20560;-84
2021/08/20 13:47:21;;;;;;;1.80;1.70;;;26.10;79.50;;;;;;4942893;28;20477;-84
2021/08/20 13:50:30;;;;;;;2.40;1.60;;;26.00;81.10;;;;;;4990361;28;20487;-86
2021/08/20 13:53:25;;;;;;;4.47;1.80;;;26.60;78.90;;;;;;4977622;28;20478;-87
2021/08/20 13:56:53;;;;;;;3.63;1.80;;;26.40;78.70;;;;;;4981592;28;20558;-85
2021/08/20 13:59:54;;;;;;;2.37;1.77;;;26.00;80.30;;;;;;4997896;28;20446;-86
2021/08/20 14:02:33;;;;;;;2.00;1.80;;;26.00;81.20;;;;;;4991314;28;20455;-83
2021/08/20 14:05:23;;;;;;;1.53;1.40;;;26.10;80.40;;;;;;4980388;28;20475;-90
2021/08/20 14:17:04;;;;;;;2.10;1.50;;;25.50;81.30;;;;;;4883310;29;20472;-88
2021/08/20 14:20:20;;;;;;;;;;;;;;;;;;;;;
2021/08/20 14:23:36;;;;;;;1.77;1.67;;;25.20;83.00;;;;;;4902304;29;20452;-87
2021/08/20 14:30:12;;;;;;;1.70;1.50;;;25.20;82.90;;;;;;4994223;28;20502;-87
2021/08/20 14:43:19;;;;;;;2.73;2.17;;;24.60;85.70;;;;;;4939929;29;20763;-87
2021/08/20 14:53:37;;;;;;;;;;;;;;;;;;;;;
2021/08/20 14:56:47;;;;;;;2.40;2.20;;;24.40;88.50;;;;;;4876158;29;20484;-84
2021/08/20 14:59:47;;;;;;;4.47;2.13;;;24.50;88.60;;;;;;4869445;29;20553;-83
2021/08/20 15:02:54;;;;;;;1.93;1.83;;;24.50;88.00;;;;;;4868812;29;20453;-83
2021/08/20 15:28:48;;;;;;;2.13;1.93;;;24.30;89.00;;;;;;4979235;28;20818;-85
2021/08/20 15:40:08;;;;;;;1.40;1.30;;;24.10;88.40;;;;;;4917845;29;20577;-83
2021/08/20 15:49:35;;;;;;;1.80;1.63;;;24.10;90.00;;;;;;5000985;28;20482;-83
2021/08/20 15:59:54;;;;;;;1.30;1.23;;;23.90;89.50;;;;;;4945814;29;20449;-86
2021/08/20 16:06:25;;;;;;;2.93;2.20;;;23.70;88.30;;;;;;4933510;29;20530;-86
2021/08/20 16:09:23;;;;;;;1.87;1.67;;;23.80;88.50;;;;;;4919084;29;20452;-83
2021/08/20 16:12:12;;;;;;;2.97;2.67;;;23.80;88.50;;;;;;5007806;22;20499;-85
2021/08/20 16:18:25;;;;;;;2.50;2.27;;;23.70;88.80;;;;;;5031731;28;21113;-83
2021/08/20 16:21:25;;;;;;;;;;;;;;;;;;;;;
2021/08/20 16:24:26;;;;;;;1.97;1.87;;;23.70;90.00;;;;;;4951151;29;20469;-84
2021/08/20 16:27:22;;;;;;;5.17;3.73;;;23.70;89.50;;;;;;4950518;28;20461;-82
2021/08/20 16:29:53;;;;;;;2.03;1.83;;;23.60;89.40;;;;;;4938674;29;20544;-83
2021/08/20 16:32:23;;;;;;;1.70;1.60;;;23.60;89.90;;;;;;4958279;28;20543;-84
2021/08/20 16:35:12;;;;;;;1.83;1.50;;;23.50;89.90;;;;;;4949344;29;20492;-84
2021/08/20 16:41:08;;;;;;;1.77;1.60;;;23.50;90.10;;;;;;4958536;29;20476;-81
2021/08/20 16:47:56;;;;;;;4.23;2.33;;;23.60;90.30;;;;;;4911962;28;20471;-83
2021/08/20 16:51:29;;;;;;;2.47;2.27;;;23.80;90.50;;;;;;4965357;28;20448;-84
2021/08/20 16:54:15;;;;;;;2.03;1.93;;;23.80;90.20;;;;;;4954931;28;20530;-85
2021/08/20 16:57:43;;;;;;;3.40;2.00;;;23.70;90.00;;;;;;4961321;28;20497;-84
2021/08/20 17:00:18;;;;;;;5.80;2.83;;;23.60;90.40;;;;;;4973182;28;20468;-85
2021/08/20 17:02:54;;;;;;;2.60;2.40;;;23.60;90.40;;;;;;4976412;28;20521;-83
2021/08/20 17:05:45;;;;;;;2.70;2.50;;;23.50;90.30;;;;;;4965945;28;20616;-85
2021/08/20 17:08:23;;;;;;;6.17;5.70;;;23.50;90.50;;;;;;4971234;28;20452;-84
2021/08/20 17:11:32;;;;;;;;;;;;;;;;;;;;;
2021/08/20 17:14:36;;;;;;;2.73;2.40;;;23.40;90.80;;;;;;4952456;28;20455;-85
2021/08/20 17:18:17;;;;;;;;;;;;;;;;;;;;;
2021/08/20 17:21:20;;;;;;;4.43;3.33;;;23.30;90.90;;;;;;5005791;28;20415;-82
2021/08/20 17:23:47;;;;;;;2.80;1.80;;;23.30;91.20;;;;;;5005282;28;20462;-82
2021/08/20 17:26:15;;;;;;;2.63;2.43;;;23.30;91.30;;;;;;4983986;28;20626;-83
2021/08/20 17:28:45;;;;;;;2.50;2.00;;;23.30;91.50;;;;;;4978032;28;21199;-84
2021/08/20 17:31:12;;;;;;;2.20;2.00;;;23.30;91.60;;;;;;4977736;28;20454;-84
2021/08/20 17:33:39;;;;;;;2.00;1.80;;;23.30;91.60;;;;;;4981858;28;20476;-81
2021/08/20 17:36:12;;;;;;;1.93;1.50;;;23.30;91.60;;;;;;4983850;28;20443;-84
2021/08/20 17:38:42;;;;;;;3.53;2.10;;;23.30;91.80;;;;;;4989512;28;20447;-83
2021/08/20 17:41:11;;;;;;;5.60;5.20;;;23.30;91.70;;;;;;5007305;28;20447;-85
2021/08/20 17:43:45;;;;;;;4.17;3.67;;;23.30;91.80;;;;;;4989293;28;20490;-83
2021/08/20 17:46:14;;;;;;;4.50;4.10;;;23.20;91.90;;;;;;5000808;28;20573;-84
2021/08/20 17:49:23;;;;;;;3.40;3.20;;;23.10;92.00;;;;;;5013140;28;20540;-82
2021/08/20 17:52:19;;;;;;;3.73;3.10;;;23.10;92.30;;;;;;5022455;28;20894;-83
2021/08/20 17:55:49;;;;;;;2.80;1.80;;;23.10;92.40;;;;;;5023214;28;20450;-86
2021/08/20 18:02:36;;;;;;;3.43;2.40;;;23.10;92.60;;;;;;5049267;28;20448;-82
2021/08/20 18:05:22;;;;;;;2.60;2.40;;;23.10;92.70;;;;;;5034089;28;20472;-84
2021/08/20 18:08:04;;;;;;;4.80;4.50;;;23.10;92.70;;;;;;5001243;28;20461;-84
2021/08/20 18:10:40;;;;;;;3.73;3.13;;;23.00;92.80;;;;;;4991570;28;20486;-80
2021/08/20 18:13:29;;;;;;;2.67;2.40;;;23.00;93.00;;;;;;4987079;28;20466;-83
2021/08/20 18:16:18;;;;;;;4.37;3.00;;;23.00;93.10;;;;;;4980875;28;20439;-83
2021/08/20 18:18:50;;;;;;;8.43;7.73;;;23.00;93.20;;;;;;4982268;28;20566;-84
2021/08/20 18:21:31;;;;;;;9.50;8.60;;;23.00;93.50;;;;;;4974138;28;20458;-83
2021/08/20 18:24:02;;;;;;;3.60;3.30;;;22.90;93.20;;;;;;4980174;28;20551;-84
2021/08/20 18:26:39;;;;;;;4.23;3.83;;;22.90;93.40;;;;;;4982073;28;20470;-84
2021/08/20 18:29:15;;;;;;;4.70;4.30;;;22.90;93.50;;;;;;4977696;28;20468;-84
2021/08/20 18:31:53;;;;;;;3.73;3.43;;;22.90;93.70;;;;;;4970899;28;20456;-85
2021/08/20 18:34:24;;;;;;;4.23;3.93;;;22.80;93.70;;;;;;4979540;28;20463;-85
2021/08/20 18:37:10;;;;;;;5.00;4.50;;;22.80;93.90;;;;;;4981401;28;20451;-84
2021/08/20 18:39:45;;;;;;;4.67;4.27;;;22.80;93.90;;;;;;4997270;28;20435;-83
2021/08/20 18:42:24;;;;;;;3.60;3.30;;;22.90;94.00;;;;;;4981458;28;20534;-83
2021/08/20 18:44:52;;;;;;;3.17;2.73;;;22.90;94.20;;;;;;5004492;28;20540;-82
2021/08/20 18:47:27;;;;;;;3.70;3.40;;;22.90;94.10;;;;;;5037716;28;20549;-84
2021/08/20 18:50:19;;;;;;;4.70;3.70;;;22.90;94.10;;;;;;5016646;28;21115;-84
2021/08/20 18:53:07;;;;;;;4.63;3.73;;;22.80;94.10;;;;;;4999041;28;20438;-85
2021/08/20 18:55:43;;;;;;;5.07;3.63;;;22.80;94.30;;;;;;4996820;28;20605;-84
2021/08/20 18:58:37;;;;;;;5.07;4.60;;;22.80;94.50;;;;;;5000238;28;20522;-86
2021/08/20 19:01:11;;;;;;;4.80;4.40;;;22.80;94.70;;;;;;5011525;28;20474;-84
2021/08/20 19:03:43;;;;;;;4.20;3.90;;;22.70;95.00;;;;;;4997060;28;20442;-83
2021/08/20 19:06:11;;;;;;;5.53;4.10;;;22.80;94.80;;;;;;4969732;28;20570;-84
2021/08/20 19:08:46;;;;;;;4.60;4.20;;;22.80;94.90;;;;;;4999137;28;21049;-85
2021/08/20 19:11:22;;;;;;;4.43;4.03;;;22.80;94.90;;;;;;5012783;28;20457;-84
2021/08/20 19:14:15;;;;;;;3.47;3.17;;;22.80;94.80;;;;;;4977884;28;20522;-83
2021/08/20 19:17:01;;;;;;;4.40;3.77;;;22.80;94.90;;;;;;5007775;28;20531;-83
2021/08/20 19:20:43;;;;;;;;;;;;;;;;;;;;;
2021/08/20 19:32:01;;;;;;;4.73;4.20;;;22.70;95.40;;;;;;1487694;26;20501;-83
2021/08/20 19:35:23;;;;;;;4.70;4.13;;;22.70;95.50;;;;;;5019545;28;20478;-83
2021/08/20 19:38:51;;;;;;;4.83;4.43;;;22.70;95.60;;;;;;5011223;28;20458;-84
2021/08/20 19:46:32;;;;;;;;;;;;;;;;;;;;;
2021/08/20 19:49:32;;;;;;;7.73;5.97;;;22.50;96.10;;;;;;4989395;28;20439;-85
2021/08/20 19:53:00;;;;;;;4.93;4.00;;;22.50;96.50;;;;;;4984190;28;20455;-86
2021/08/20 19:59:18;;;;;;;4.40;4.00;;;22.50;97.30;;;;;;4992469;28;20525;-85
2021/08/20 20:01:45;;;;;;;4.73;4.27;;;22.40;97.50;;;;;;4987296;28;20443;-85
2021/08/20 20:04:34;;;;;;;4.90;4.50;;;22.40;97.50;;;;;;5013100;28;20509;-84
2021/08/20 20:07:20;;;;;;;5.73;5.23;;;22.40;97.80;;;;;;5037346;28;20861;-84
2021/08/20 20:17:49;;;;;;;4.00;3.60;;;22.20;99.70;;;;;;5029548;28;20482;-84
2021/08/20 20:32:43;;;;;;;5.93;5.43;;;21.90;99.80;;;;;;5025527;28;20485;-85
2021/08/20 20:35:13;;;;;;;5.97;5.37;;;21.80;99.90;;;;;;5006658;28;20517;-84
2021/08/20 20:38:33;;;;;;;;;;;;;;;;;;;;;
2021/08/20 20:42:24;;;;;;;;;;;;;;;;;;;;;
2021/08/20 20:46:30;;;;;;;7.33;6.73;;;21.60;99.90;;;;;;4923733;29;20518;-84
2021/08/20 20:49:42;;;;;;;6.80;5.57;;;21.70;99.90;;;;;;4919633;29;20512;-86
2021/08/20 20:57:09;;;;;;;;;;;;;;;;;;;;;
2021/08/20 21:00:17;;;;;;;6.47;5.87;;;21.60;99.90;;;;;;4769636;29;20463;-85
2021/08/20 21:03:17;;;;;;;;;;;;;;;;;;;;;
2021/08/20 21:06:33;;;;;;;7.70;5.60;;;22.10;99.90;;;;;;4757967;30;20902;-83
2021/08/20 21:13:32;;;;;;;5.90;5.30;;;21.60;99.90;;;;;;4790829;29;20496;-85
2021/08/20 21:16:15;;;;;;;6.43;5.80;;;21.50;99.90;;;;;;4788253;29;20934;-84
2021/08/20 21:19:17;;;;;;;7.90;6.93;;;21.40;99.90;;;;;;4837133;29;20468;-85
2021/08/20 21:22:29;;;;;;;6.97;6.40;;;21.30;99.90;;;;;;4939400;29;20587;-85
2021/08/20 21:25:19;;;;;;;7.40;6.40;;;21.30;99.90;;;;;;4945695;29;20492;-84
2021/08/20 21:28:52;;;;;;;7.50;6.80;;;21.20;99.90;;;;;;4904321;29;20492;-85
2021/08/20 21:31:23;;;;;;;6.27;5.67;;;21.10;99.90;;;;;;4951207;28;20444;-86
2021/08/20 21:37:48;;;;;;;6.73;4.90;;;21.40;99.90;;;;;;4919163;29;20446;-85
2021/08/20 21:40:57;;;;;;;5.27;4.77;;;21.80;99.90;;;;;;4898967;29;20467;-86
2021/08/20 21:43:28;;;;;;;5.40;4.87;;;21.50;99.90;;;;;;4925833;28;20461;-86
2021/08/20 21:45:58;;;;;;;4.93;4.53;;;21.30;99.90;;;;;;4965279;28;20481;-84
2021/08/20 21:55:42;;;;;;;5.87;5.33;;;20.90;99.90;;;;;;4976112;28;20465;-88
2021/08/20 21:58:23;;;;;;;7.97;4.83;;;20.90;99.90;;;;;;4973935;28;20463;-83
2021/08/20 22:01:53;;;;;;;4.90;4.50;;;20.90;99.90;;;;;;5013374;28;20482;-84
2021/08/20 22:04:45;;;;;;;5.57;4.73;;;20.90;99.90;;;;;;5105644;22;20967;-86
2021/08/20 22:07:28;;;;;;;5.00;3.57;;;20.80;99.90;;;;;;5016481;28;20485;-82
2021/08/20 22:10:07;;;;;;;5.87;5.10;;;20.80;99.90;;;;;;5031607;28;20950;-84
2021/08/20 22:13:08;;;;;;;5.10;4.60;;;20.80;99.90;;;;;;5018812;28;20427;-83
2021/08/20 22:16:01;;;;;;;6.40;5.00;;;21.20;99.90;;;;;;5022189;28;20831;-84
2021/08/20 22:18:37;;;;;;;5.80;5.30;;;21.20;99.90;;;;;;5012011;28;20456;-85
2021/08/20 22:21:21;;;;;;;5.87;5.27;;;21.10;99.90;;;;;;5018386;28;20483;-86
2021/08/20 22:24:08;;;;;;;4.73;4.33;;;21.00;99.90;;;;;;5015968;28;20469;-84
2021/08/20 22:26:38;;;;;;;7.23;4.13;;;20.70;99.90;;;;;;5009364;28;20485;-85
2021/08/20 22:30:15;;;;;;;4.70;4.30;;;20.80;99.90;;;;;;5038591;28;20830;-84
2021/08/20 22:32:57;;;;;;;5.80;4.70;;;20.80;99.90;;;;;;4965487;28;20459;-85
2021/08/20 22:35:35;;;;;;;4.40;4.10;;;20.60;99.90;;;;;;4967819;28;20535;-86
2021/08/20 22:39:03;;;;;;;4.70;4.30;;;20.50;99.90;;;;;;4967079;28;20483;-84
2021/08/20 22:41:51;;;;;;;4.43;4.03;;;20.40;99.90;;;;;;4859215;29;20481;-84
2021/08/20 22:44:20;;;;;;;4.67;4.20;;;20.60;99.90;;;;;;4890764;29;20501;-86
2021/08/20 22:46:55;;;;;;;7.00;4.87;;;20.60;99.90;;;;;;4887683;29;20614;-85
2021/08/20 22:53:18;;;;;;;4.63;4.17;;;20.20;99.90;;;;;;4853767;29;20480;-85
2021/08/20 22:56:18;;;;;;;4.47;4.07;;;20.10;99.90;;;;;;4893735;29;21002;-86
2021/08/20 22:58:56;;;;;;;4.40;4.00;;;20.10;99.90;;;;;;4959253;28;20688;-84
2021/08/20 23:01:46;;;;;;;4.50;4.10;;;20.00;99.90;;;;;;4953960;29;20474;-86
2021/08/20 23:04:25;;;;;;;5.60;4.20;;;20.00;99.90;;;;;;4957203;28;21410;-83
2021/08/20 23:07:01;;;;;;;5.50;4.40;;;20.00;99.90;;;;;;4957455;29;20592;-84
2021/08/20 23:09:41;;;;;;;4.53;3.87;;;20.00;99.90;;;;;;4940135;29;20488;-86
2021/08/20 23:12:27;;;;;;;7.80;4.40;;;19.70;99.90;;;;;;4956090;29;20508;-84
2021/08/20 23:15:33;;;;;;;5.07;4.30;;;19.90;99.90;;;;;;4955572;28;20472;-84
2021/08/20 23:18:36;;;;;;;5.70;5.20;;;20.00;99.90;;;;;;4955190;28;20477;-84
2021/08/20 23:21:48;;;;;;;5.67;4.60;;;19.90;99.90;;;;;;5023289;28;20449;-85
2021/08/20 23:24:17;;;;;;;5.03;4.30;;;19.70;99.90;;;;;;5038679;28;20507;-85
2021/08/20 23:27:08;;;;;;;4.40;4.00;;;19.70;99.90;;;;;;5039129;28;20476;-86
2021/08/20 23:29:51;;;;;;;5.07;4.67;;;19.70;99.90;;;;;;5029904;28;20525;-86
2021/08/20 23:32:42;;;;;;;5.70;4.10;;;19.60;99.90;;;;;;5022045;28;21139;-84
2021/08/20 23:35:26;;;;;;;4.60;4.20;;;19.70;99.90;;;;;;5023984;28;20470;-84
2021/08/20 23:37:56;;;;;;;5.00;4.07;;;19.80;99.90;;;;;;5019980;28;20441;-85
2021/08/20 23:40:38;;;;;;;4.80;4.40;;;19.70;99.90;;;;;;5040590;28;20445;-85
2021/08/20 23:43:13;;;;;;;4.57;4.17;;;19.70;99.90;;;;;;5018922;28;20442;-85